Time;durP1;ratioP1;P1;durP2;ratioP2;P2;SDS_P1;SDS_P2;PMS_P1;PMS_P2;Temp;Humidity;BMP_temperature;BMP_pressure;BME280_temperature;BME280_humidity;BME280_pressure;Samples;Min_cycle;Max_cycle;Signal;HPM_P1;HPM_P2
2022/07/26 00:01:34;;;;;;;1.40;1.30;;;24.90;49.90;;;;;;5055645;28;20226;-66
2022/07/26 00:04:02;;;;;;;1.40;1.30;;;24.80;49.80;;;;;;5058377;28;20184;-58
2022/07/26 00:06:28;;;;;;;1.40;1.30;;;24.90;49.90;;;;;;5055638;28;20443;-60
2022/07/26 00:08:56;;;;;;;1.40;1.30;;;24.90;49.90;;;;;;5060558;28;20480;-72
2022/07/26 00:11:24;;;;;;;1.27;1.17;;;24.80;49.90;;;;;;5068321;28;20995;-70
2022/07/26 00:13:50;;;;;;;1.40;1.30;;;24.90;49.90;;;;;;5058537;28;21163;-64
2022/07/26 00:16:20;;;;;;;1.83;1.73;;;24.90;49.90;;;;;;5059785;28;20576;-73
2022/07/26 00:18:46;;;;;;;1.40;1.30;;;24.90;50.00;;;;;;5055401;28;20524;-57
2022/07/26 00:21:14;;;;;;;1.10;1.00;;;24.90;50.00;;;;;;5058679;28;21053;-67
2022/07/26 00:23:40;;;;;;;1.33;1.23;;;24.90;49.90;;;;;;5059352;28;20911;-63
2022/07/26 00:26:06;;;;;;;1.30;1.20;;;24.90;49.90;;;;;;5064718;28;20417;-73
2022/07/26 00:28:32;;;;;;;1.27;1.17;;;24.90;50.00;;;;;;5059034;28;21167;-74
2022/07/26 00:30:58;;;;;;;1.40;1.30;;;24.80;49.80;;;;;;5056913;28;20591;-67
2022/07/26 00:33:24;;;;;;;1.33;1.23;;;24.90;49.90;;;;;;5057717;28;20189;-68
2022/07/26 00:35:50;;;;;;;1.40;1.30;;;24.90;49.90;;;;;;5060742;28;20444;-65
2022/07/26 00:38:15;;;;;;;1.50;1.40;;;24.90;49.90;;;;;;5063418;28;20241;-60
2022/07/26 00:40:42;;;;;;;1.47;1.37;;;24.90;49.90;;;;;;5071012;28;20174;-57
2022/07/26 00:43:07;;;;;;;1.40;1.30;;;24.90;49.90;;;;;;5066769;28;21133;-61
2022/07/26 00:45:33;;;;;;;1.47;1.37;;;24.90;49.90;;;;;;5060109;28;20477;-66
2022/07/26 00:48:00;;;;;;;1.40;1.30;;;24.90;49.90;;;;;;5063039;28;20304;-72
2022/07/26 00:50:26;;;;;;;1.33;1.23;;;24.90;49.90;;;;;;5060517;28;20221;-73
2022/07/26 00:52:53;;;;;;;1.20;1.10;;;24.90;49.90;;;;;;5064137;28;20425;-59
2022/07/26 00:55:19;;;;;;;1.40;1.30;;;24.90;49.80;;;;;;5062055;28;20227;-62
2022/07/26 00:57:46;;;;;;;1.40;1.27;;;24.90;49.80;;;;;;5073483;28;20437;-60
2022/07/26 01:00:15;;;;;;;1.50;1.40;;;24.90;49.90;;;;;;5060928;28;20464;-63
2022/07/26 01:02:42;;;;;;;1.30;1.20;;;24.90;49.90;;;;;;5066089;28;21560;-60
2022/07/26 01:05:08;;;;;;;1.50;1.40;;;24.90;49.90;;;;;;5064214;28;20437;-63
2022/07/26 01:07:35;;;;;;;1.20;1.10;;;24.90;49.90;;;;;;5060076;28;20469;-67
2022/07/26 01:10:02;;;;;;;1.40;1.30;;;24.90;49.80;;;;;;5060880;28;20486;-67
2022/07/26 01:12:28;;;;;;;1.30;1.20;;;24.90;50.00;;;;;;5073557;28;20433;-58
2022/07/26 01:14:54;;;;;;;1.33;1.23;;;24.90;50.00;;;;;;5060412;28;20513;-73
2022/07/26 01:17:20;;;;;;;1.30;1.20;;;24.90;49.90;;;;;;5057767;28;20489;-68
2022/07/26 01:19:46;;;;;;;1.30;1.20;;;24.90;49.90;;;;;;5059861;28;20464;-62
2022/07/26 01:22:12;;;;;;;1.20;1.10;;;24.90;49.90;;;;;;5060425;28;20462;-65
2022/07/26 01:24:38;;;;;;;1.13;1.07;;;24.90;49.90;;;;;;5063106;28;20192;-77
2022/07/26 01:27:04;;;;;;;1.30;1.20;;;24.90;49.90;;;;;;5064749;28;20442;-60
2022/07/26 01:29:29;;;;;;;1.50;1.40;;;24.90;49.90;;;;;;5067710;28;20276;-64
2022/07/26 01:31:55;;;;;;;1.00;1.00;;;24.90;49.90;;;;;;5058914;28;21188;-75
2022/07/26 01:34:21;;;;;;;1.30;1.20;;;24.90;49.90;;;;;;5068265;28;20208;-59
2022/07/26 01:36:47;;;;;;;1.43;1.33;;;24.90;49.90;;;;;;5065434;28;20177;-73
2022/07/26 01:39:15;;;;;;;1.10;1.00;;;24.90;49.90;;;;;;5060282;28;20185;-63
2022/07/26 01:41:41;;;;;;;1.27;1.17;;;24.80;49.70;;;;;;5061289;28;20510;-63
2022/07/26 01:44:07;;;;;;;1.40;1.30;;;24.90;49.90;;;;;;5070971;28;20444;-62
2022/07/26 01:46:33;;;;;;;1.30;1.20;;;24.80;49.80;;;;;;5065952;28;20188;-58
2022/07/26 01:49:00;;;;;;;1.30;1.20;;;24.90;49.90;;;;;;5064076;28;20288;-67
2022/07/26 01:51:26;;;;;;;1.40;1.30;;;24.90;49.80;;;;;;5060596;28;20488;-74
2022/07/26 01:53:53;;;;;;;1.20;1.10;;;24.90;49.80;;;;;;5059365;28;20498;-61
2022/07/26 01:56:18;;;;;;;2.13;1.13;;;24.90;49.90;;;;;;5062441;28;20437;-57
2022/07/26 01:58:44;;;;;;;1.40;1.30;;;24.80;49.80;;;;;;5072362;28;20252;-57
2022/07/26 02:01:10;;;;;;;1.00;1.00;;;24.90;49.90;;;;;;5064373;28;20238;-66
2022/07/26 02:03:36;;;;;;;1.30;1.20;;;24.90;49.10;;;;;;5065773;28;20185;-59
2022/07/26 02:06:02;;;;;;;1.33;1.23;;;24.90;49.80;;;;;;5060101;28;20428;-61
2022/07/26 02:08:28;;;;;;;1.20;1.10;;;24.90;49.80;;;;;;5061016;28;20461;-65
2022/07/26 02:10:59;;;;;;;1.33;1.23;;;24.90;49.80;;;;;;5060582;28;20483;-60
2022/07/26 02:13:27;;;;;;;1.20;1.10;;;24.90;49.80;;;;;;5062317;28;20445;-64
2022/07/26 02:15:53;;;;;;;1.40;1.30;;;24.90;49.80;;;;;;5067954;28;20436;-68
2022/07/26 02:18:20;;;;;;;1.40;1.30;;;24.80;49.70;;;;;;5063262;28;20437;-65
2022/07/26 02:20:46;;;;;;;1.37;1.27;;;24.90;49.80;;;;;;5058412;28;20766;-69
2022/07/26 02:23:12;;;;;;;1.17;1.07;;;24.80;49.70;;;;;;5064798;28;20437;-70
2022/07/26 02:25:38;;;;;;;1.17;1.10;;;24.90;49.80;;;;;;5058392;28;20242;-72
2022/07/26 02:28:05;;;;;;;1.27;1.17;;;24.80;49.70;;;;;;5063040;28;20575;-70
2022/07/26 02:30:30;;;;;;;1.20;1.10;;;24.90;49.80;;;;;;5068346;28;20189;-71
2022/07/26 02:32:57;;;;;;;1.10;1.00;;;24.90;49.80;;;;;;5060174;28;20879;-71
2022/07/26 02:35:23;;;;;;;1.20;1.10;;;24.90;49.80;;;;;;5059915;28;20189;-71
2022/07/26 02:37:49;;;;;;;1.40;1.30;;;24.90;49.80;;;;;;5062226;28;20553;-69
2022/07/26 02:40:14;;;;;;;1.20;1.10;;;24.90;49.80;;;;;;5063733;28;20189;-57
2022/07/26 02:42:40;;;;;;;0.90;0.90;;;24.90;49.80;;;;;;5063534;28;20438;-70
2022/07/26 02:45:06;;;;;;;1.30;1.20;;;24.80;49.70;;;;;;5065437;28;20632;-67
2022/07/26 02:47:33;;;;;;;1.40;1.30;;;24.90;49.80;;;;;;5056680;28;20220;-63
2022/07/26 02:49:59;;;;;;;1.20;1.10;;;24.90;49.80;;;;;;5058748;28;20920;-59
2022/07/26 02:52:24;;;;;;;1.20;1.10;;;24.90;49.80;;;;;;5058297;28;20533;-69
2022/07/26 02:54:50;;;;;;;1.30;1.20;;;24.90;49.80;;;;;;5060586;28;20199;-74
2022/07/26 02:57:15;;;;;;;1.20;1.20;;;24.90;49.80;;;;;;5059425;28;20177;-61
2022/07/26 02:59:41;;;;;;;1.13;1.03;;;24.90;49.80;;;;;;5064556;28;20176;-76
2022/07/26 03:02:07;;;;;;;0.97;0.97;;;24.80;49.60;;;;;;5060546;28;20630;-69
2022/07/26 03:04:32;;;;;;;1.20;1.10;;;24.90;49.80;;;;;;5059340;28;20189;-72
2022/07/26 03:06:58;;;;;;;1.30;1.20;;;24.80;49.70;;;;;;5058341;28;20182;-74
2022/07/26 03:09:23;;;;;;;1.20;1.10;;;24.80;49.70;;;;;;5062512;28;20841;-67
2022/07/26 03:11:49;;;;;;;1.17;1.07;;;24.90;49.70;;;;;;5066447;28;20189;-63
2022/07/26 03:14:15;;;;;;;1.50;1.40;;;24.80;49.60;;;;;;5066410;28;20703;-68
2022/07/26 03:16:41;;;;;;;1.10;1.10;;;24.80;49.60;;;;;;5066629;28;20181;-58
2022/07/26 03:19:07;;;;;;;1.20;1.10;;;24.90;49.70;;;;;;5062232;28;20195;-66
2022/07/26 03:21:32;;;;;;;1.30;1.20;;;24.90;49.70;;;;;;5059142;28;20193;-59
2022/07/26 03:23:58;;;;;;;1.27;1.17;;;24.80;49.60;;;;;;5062812;28;20192;-59
2022/07/26 03:26:23;;;;;;;1.20;1.10;;;24.80;49.70;;;;;;5060788;28;20204;-57
2022/07/26 03:28:49;;;;;;;1.30;1.20;;;24.90;49.80;;;;;;5058760;28;20767;-64
2022/07/26 03:31:15;;;;;;;1.50;1.17;;;24.90;49.80;;;;;;5064703;28;20181;-61
2022/07/26 03:33:40;;;;;;;1.30;1.20;;;24.80;49.60;;;;;;5064696;28;20189;-58
2022/07/26 03:36:12;;;;;;;1.30;1.20;;;24.90;49.80;;;;;;5060682;28;21030;-61
2022/07/26 03:38:38;;;;;;;1.10;1.10;;;24.80;49.60;;;;;;5061844;28;20184;-57
2022/07/26 03:41:05;;;;;;;1.20;1.07;;;24.80;49.60;;;;;;5061660;28;20429;-76
2022/07/26 03:43:30;;;;;;;1.37;1.27;;;24.90;49.70;;;;;;5062051;28;20190;-59
2022/07/26 03:45:56;;;;;;;1.30;1.20;;;24.90;49.70;;;;;;5068470;28;20436;-58
2022/07/26 03:48:21;;;;;;;1.30;1.13;;;24.80;49.60;;;;;;5061391;28;20209;-74
2022/07/26 03:50:47;;;;;;;0.90;0.90;;;24.90;49.70;;;;;;5057321;28;21684;-60
2022/07/26 03:53:13;;;;;;;1.10;1.10;;;24.90;49.70;;;;;;5058344;28;21861;-63
2022/07/26 03:58:23;;;;;;;1.00;0.90;;;24.90;49.70;;;;;;5059145;28;20175;-63
2022/07/26 04:00:49;;;;;;;1.23;1.13;;;24.80;49.50;;;;;;5064050;28;20438;-57
2022/07/26 04:03:15;;;;;;;1.10;1.00;;;24.90;49.70;;;;;;5062074;28;20170;-65
2022/07/26 04:05:40;;;;;;;1.10;1.00;;;24.80;49.60;;;;;;5059463;28;20441;-77
2022/07/26 04:08:06;;;;;;;1.20;1.10;;;24.80;49.60;;;;;;5059288;28;20567;-62
2022/07/26 04:10:32;;;;;;;1.13;1.03;;;24.80;49.50;;;;;;5057206;28;20184;-64
2022/07/26 04:12:58;;;;;;;1.10;1.00;;;24.80;49.60;;;;;;5058385;28;20272;-64
2022/07/26 04:15:23;;;;;;;1.00;1.00;;;24.80;49.60;;;;;;5062602;28;20264;-57
2022/07/26 04:17:50;;;;;;;1.20;1.10;;;24.80;49.60;;;;;;5073934;28;20196;-60
2022/07/26 04:20:17;;;;;;;1.17;1.10;;;24.80;49.60;;;;;;5071938;28;20235;-60
2022/07/26 04:22:44;;;;;;;1.13;1.03;;;24.80;49.60;;;;;;5071177;28;20464;-58
2022/07/26 04:25:09;;;;;;;1.50;1.40;;;24.80;49.60;;;;;;5068397;28;20428;-59
2022/07/26 04:27:36;;;;;;;1.43;1.33;;;24.90;49.70;;;;;;5067442;28;20458;-73
2022/07/26 04:30:04;;;;;;;1.20;1.10;;;24.80;49.50;;;;;;5070063;28;20235;-63
2022/07/26 04:32:30;;;;;;;1.30;1.20;;;24.90;49.60;;;;;;5072329;28;20437;-57
2022/07/26 04:34:58;;;;;;;1.33;1.23;;;24.80;49.50;;;;;;5067638;28;20433;-62
2022/07/26 04:37:24;;;;;;;1.20;1.10;;;24.90;49.60;;;;;;5068028;28;20876;-64
2022/07/26 04:39:50;;;;;;;1.10;1.00;;;24.80;49.50;;;;;;5069794;28;20494;-75
2022/07/26 04:42:15;;;;;;;1.07;1.00;;;24.90;49.60;;;;;;5064513;28;20212;-63
2022/07/26 04:44:41;;;;;;;1.20;1.10;;;24.90;49.60;;;;;;5067850;28;20442;-57
2022/07/26 04:47:07;;;;;;;1.30;1.20;;;24.90;49.60;;;;;;5068485;28;20187;-60
2022/07/26 04:49:33;;;;;;;1.10;1.00;;;24.90;49.50;;;;;;5070572;28;20457;-63
2022/07/26 04:51:59;;;;;;;1.03;1.00;;;24.90;49.50;;;;;;5069597;28;20273;-72
2022/07/26 04:54:24;;;;;;;1.30;1.20;;;24.90;49.60;;;;;;5066332;28;20184;-65
2022/07/26 04:56:50;;;;;;;1.10;1.10;;;24.90;49.50;;;;;;5068156;28;20181;-68
2022/07/26 04:59:19;;;;;;;1.20;1.10;;;24.90;49.60;;;;;;5063343;28;20193;-75
2022/07/26 05:01:44;;;;;;;1.10;1.10;;;24.90;49.50;;;;;;5062122;28;20193;-67
2022/07/26 05:04:10;;;;;;;1.30;1.20;;;24.90;49.50;;;;;;5072292;28;20433;-63
2022/07/26 05:06:37;;;;;;;1.33;1.23;;;24.90;49.50;;;;;;5061984;28;20193;-78
2022/07/26 05:09:03;;;;;;;1.30;1.20;;;24.90;49.50;;;;;;5062677;28;20511;-71
2022/07/26 05:11:29;;;;;;;1.23;1.13;;;25.00;49.50;;;;;;5066021;28;20272;-75
2022/07/26 05:13:54;;;;;;;1.10;1.00;;;25.00;49.40;;;;;;5064847;28;20529;-57
2022/07/26 05:16:20;;;;;;;1.30;1.20;;;25.00;49.30;;;;;;5065744;28;20197;-67
2022/07/26 05:18:46;;;;;;;1.30;1.20;;;25.00;49.20;;;;;;5074788;28;20191;-67
2022/07/26 05:21:12;;;;;;;1.10;0.90;;;25.10;49.10;;;;;;5065636;28;20228;-59
2022/07/26 05:23:37;;;;;;;1.37;1.27;;;25.10;49.10;;;;;;5071677;28;20237;-66
2022/07/26 05:26:03;;;;;;;1.30;1.20;;;25.10;49.10;;;;;;5064477;28;20182;-61
2022/07/26 05:28:28;;;;;;;1.40;1.30;;;25.10;49.10;;;;;;5064544;28;20250;-78
2022/07/26 05:30:55;;;;;;;1.10;1.00;;;25.10;49.20;;;;;;5067197;28;20189;-58
2022/07/26 05:33:20;;;;;;;1.20;1.10;;;25.10;49.10;;;;;;5066738;28;20176;-69
2022/07/26 05:35:46;;;;;;;1.10;1.07;;;25.10;49.10;;;;;;5072747;28;20471;-61
2022/07/26 05:38:12;;;;;;;1.33;1.23;;;25.10;49.10;;;;;;5067573;28;20352;-57
2022/07/26 05:40:37;;;;;;;1.40;1.30;;;25.10;49.10;;;;;;5068214;28;20215;-65
2022/07/26 05:43:03;;;;;;;1.27;1.17;;;25.10;49.10;;;;;;5062389;28;20201;-64
2022/07/26 05:45:29;;;;;;;5.13;1.30;;;25.10;49.10;;;;;;5060041;28;20192;-71
2022/07/26 05:47:55;;;;;;;1.23;1.13;;;25.10;49.10;;;;;;5064623;28;20290;-72
2022/07/26 05:50:21;;;;;;;1.20;1.10;;;25.10;49.10;;;;;;5071823;28;20445;-58
2022/07/26 05:52:47;;;;;;;1.00;1.00;;;25.10;49.20;;;;;;5068448;28;20275;-59
2022/07/26 05:55:13;;;;;;;1.20;1.10;;;25.10;49.10;;;;;;5065553;28;20435;-63
2022/07/26 05:57:41;;;;;;;1.80;1.20;;;25.10;49.10;;;;;;5065536;28;20733;-61
2022/07/26 06:00:08;;;;;;;1.67;1.10;;;25.10;49.10;;;;;;5063232;28;20430;-63
2022/07/26 06:02:34;;;;;;;1.30;1.20;;;25.10;49.10;;;;;;5062952;28;20833;-62
2022/07/26 06:04:59;;;;;;;1.70;1.17;;;25.10;49.10;;;;;;5069574;28;20422;-67
2022/07/26 06:07:25;;;;;;;1.13;1.03;;;25.10;49.10;;;;;;5068084;28;20173;-68
2022/07/26 06:09:51;;;;;;;1.00;1.00;;;25.10;49.20;;;;;;5064355;28;20207;-62
2022/07/26 06:12:16;;;;;;;1.20;1.10;;;25.10;49.20;;;;;;5068789;28;20322;-60
2022/07/26 06:14:42;;;;;;;2.83;1.10;;;25.10;49.20;;;;;;5069700;28;20194;-59
2022/07/26 06:17:08;;;;;;;1.27;1.17;;;25.10;49.20;;;;;;5065899;28;20185;-60
2022/07/26 06:19:34;;;;;;;1.20;1.10;;;25.10;49.20;;;;;;5066515;28;20225;-61
2022/07/26 06:21:59;;;;;;;1.20;1.10;;;25.10;49.20;;;;;;5071574;28;20173;-62
2022/07/26 06:24:25;;;;;;;1.40;1.30;;;25.10;49.20;;;;;;5071110;28;20173;-63
2022/07/26 06:26:54;;;;;;;1.30;1.20;;;25.10;49.30;;;;;;5060752;28;20215;-71
2022/07/26 06:29:20;;;;;;;1.10;1.03;;;25.10;49.30;;;;;;5061374;28;20476;-65
2022/07/26 06:31:46;;;;;;;1.10;1.00;;;25.10;49.20;;;;;;5065986;28;20432;-62
2022/07/26 06:34:12;;;;;;;1.30;1.20;;;25.00;49.10;;;;;;5065085;28;20924;-64
2022/07/26 06:36:39;;;;;;;1.60;1.50;;;25.00;49.10;;;;;;5072639;28;20188;-59
2022/07/26 06:39:05;;;;;;;1.23;1.13;;;25.00;49.20;;;;;;5061298;28;20215;-60
2022/07/26 06:41:30;;;;;;;1.30;1.20;;;25.00;49.30;;;;;;5063573;28;20425;-60
2022/07/26 06:43:56;;;;;;;1.30;1.13;;;25.10;49.20;;;;;;5061607;28;20873;-59
2022/07/26 06:46:22;;;;;;;1.30;1.17;;;25.00;49.30;;;;;;5066830;28;20250;-65
2022/07/26 06:48:48;;;;;;;1.50;1.40;;;25.00;49.30;;;;;;5062883;28;20299;-67
2022/07/26 06:51:14;;;;;;;1.30;1.20;;;25.00;49.20;;;;;;5068197;28;20631;-60
2022/07/26 06:53:41;;;;;;;1.27;1.17;;;25.00;49.20;;;;;;5066546;28;20522;-67
2022/07/26 06:56:07;;;;;;;1.40;1.30;;;25.00;49.20;;;;;;5059580;28;20195;-60
2022/07/26 06:58:32;;;;;;;1.53;1.30;;;25.00;49.30;;;;;;5064407;28;20429;-64
2022/07/26 07:00:59;;;;;;;1.77;1.30;;;25.00;49.20;;;;;;5069010;28;20174;-59
2022/07/26 07:03:26;;;;;;;1.70;1.23;;;25.00;49.30;;;;;;5066759;28;20187;-68
2022/07/26 07:05:52;;;;;;;1.20;1.10;;;25.00;49.20;;;;;;5061572;28;20430;-73
2022/07/26 07:08:20;;;;;;;1.27;1.17;;;25.00;49.20;;;;;;5069147;28;20553;-60
2022/07/26 07:10:45;;;;;;;1.07;1.00;;;25.00;49.20;;;;;;5070988;28;20196;-59
2022/07/26 07:13:11;;;;;;;1.30;1.20;;;25.00;49.20;;;;;;5075235;28;20433;-61
2022/07/26 07:15:37;;;;;;;1.53;1.43;;;25.00;49.30;;;;;;5064052;28;20193;-63
2022/07/26 07:18:05;;;;;;;1.47;1.37;;;25.00;49.30;;;;;;5062145;28;20229;-75
2022/07/26 07:20:30;;;;;;;1.33;1.23;;;25.00;49.30;;;;;;5064972;28;20241;-61
2022/07/26 07:22:56;;;;;;;1.27;1.17;;;25.00;49.40;;;;;;5074299;28;20971;-60
2022/07/26 07:25:23;;;;;;;1.40;1.30;;;25.00;49.40;;;;;;5060838;28;20205;-74
2022/07/26 07:27:49;;;;;;;1.87;1.10;;;25.00;50.10;;;;;;5060098;28;20295;-64
2022/07/26 07:30:15;;;;;;;1.20;1.10;;;25.00;49.40;;;;;;5060420;28;20867;-64
2022/07/26 07:32:42;;;;;;;1.30;1.10;;;25.00;49.40;;;;;;5059775;28;20909;-74
2022/07/26 07:35:07;;;;;;;1.13;1.03;;;25.00;49.40;;;;;;5059622;28;20434;-71
2022/07/26 07:37:34;;;;;;;1.40;1.20;;;25.00;49.40;;;;;;5067980;28;20448;-61
2022/07/26 07:40:04;;;;;;;1.40;1.30;;;25.00;49.40;;;;;;5068857;28;20441;-75
2022/07/26 07:42:30;;;;;;;1.37;1.27;;;25.00;49.40;;;;;;5059971;28;20442;-70
2022/07/26 07:44:55;;;;;;;1.80;1.50;;;25.00;49.40;;;;;;5060005;28;20433;-63
2022/07/26 07:47:21;;;;;;;1.30;1.20;;;25.00;49.40;;;;;;5059717;28;20633;-75
2022/07/26 07:49:46;;;;;;;1.40;1.30;;;25.00;49.30;;;;;;5059646;28;20642;-76
2022/07/26 07:52:12;;;;;;;1.40;1.30;;;25.00;49.40;;;;;;5060823;28;20579;-59
2022/07/26 07:54:38;;;;;;;2.83;1.20;;;25.00;49.40;;;;;;5082043;28;20177;-59
2022/07/26 07:57:04;;;;;;;1.30;1.20;;;25.00;49.30;;;;;;5066615;28;20196;-73
2022/07/26 07:59:29;;;;;;;2.07;1.30;;;25.00;49.40;;;;;;5066660;28;20490;-68
2022/07/26 08:01:55;;;;;;;1.50;1.40;;;25.00;49.40;;;;;;5066803;28;20188;-62
2022/07/26 08:04:21;;;;;;;1.30;1.20;;;25.00;49.40;;;;;;5064441;28;20180;-61
2022/07/26 08:06:47;;;;;;;1.33;1.23;;;25.00;49.40;;;;;;5061208;28;20745;-71
2022/07/26 08:09:13;;;;;;;1.37;1.13;;;25.00;49.40;;;;;;5068204;28;20556;-58
2022/07/26 08:11:38;;;;;;;1.20;1.10;;;25.00;49.40;;;;;;5061723;28;20433;-64
2022/07/26 08:14:04;;;;;;;1.60;1.50;;;25.00;49.40;;;;;;5066546;28;20205;-63
2022/07/26 08:16:30;;;;;;;1.30;1.20;;;25.00;49.40;;;;;;5064242;28;20550;-64
2022/07/26 08:18:56;;;;;;;1.67;1.57;;;25.00;49.30;;;;;;5065830;28;20442;-69
2022/07/26 08:21:21;;;;;;;1.50;1.40;;;25.00;49.40;;;;;;5068270;28;20180;-64
2022/07/26 08:23:48;;;;;;;1.70;1.20;;;25.00;49.40;;;;;;5069611;28;20181;-60
2022/07/26 08:26:14;;;;;;;1.17;1.07;;;25.00;49.40;;;;;;5065553;28;20262;-75
2022/07/26 08:28:40;;;;;;;1.30;1.20;;;25.00;49.40;;;;;;5060327;28;20469;-73
2022/07/26 08:31:06;;;;;;;1.50;1.40;;;25.00;49.40;;;;;;5066530;28;20180;-72
2022/07/26 08:33:32;;;;;;;1.67;1.30;;;25.00;49.40;;;;;;5064259;28;20438;-66
2022/07/26 08:35:57;;;;;;;1.20;1.10;;;25.00;49.30;;;;;;5064588;28;20206;-62
2022/07/26 08:38:23;;;;;;;1.30;1.20;;;25.00;49.40;;;;;;5068363;28;20512;-58
2022/07/26 08:40:49;;;;;;;1.37;1.27;;;25.00;49.40;;;;;;5059904;28;20496;-58
2022/07/26 08:43:15;;;;;;;1.43;1.20;;;25.00;49.40;;;;;;5066614;28;20661;-60
2022/07/26 08:45:41;;;;;;;1.40;1.30;;;25.00;49.40;;;;;;5066244;28;20184;-63
2022/07/26 08:48:07;;;;;;;2.03;1.40;;;25.00;49.40;;;;;;5066691;28;20228;-69
2022/07/26 08:50:33;;;;;;;1.23;1.13;;;25.00;49.60;;;;;;5064318;28;20421;-58
2022/07/26 08:53:02;;;;;;;1.20;1.10;;;25.00;49.40;;;;;;5065161;28;20193;-61
2022/07/26 08:55:29;;;;;;;1.60;1.20;;;25.00;49.40;;;;;;5067470;28;20442;-73
2022/07/26 08:57:56;;;;;;;1.40;1.30;;;25.00;49.40;;;;;;5061277;28;20457;-61
2022/07/26 09:00:30;;;;;;;1.40;1.30;;;25.00;49.50;;;;;;5067895;28;20444;-61
2022/07/26 09:03:01;;;;;;;1.30;1.20;;;25.00;49.50;;;;;;5064204;28;20412;-58
2022/07/26 09:05:35;;;;;;;1.47;1.37;;;25.00;49.50;;;;;;5065453;28;20520;-58
2022/07/26 09:08:25;;;;;;;1.40;1.27;;;25.00;49.50;;;;;;5065531;28;20471;-62
2022/07/26 09:10:51;;;;;;;1.50;1.37;;;25.00;49.50;;;;;;5073336;28;20460;-73
2022/07/26 09:13:16;;;;;;;1.60;1.50;;;25.00;49.60;;;;;;5063776;28;20844;-67
2022/07/26 09:15:42;;;;;;;1.60;1.50;;;25.00;49.70;;;;;;5072297;28;20292;-73
2022/07/26 09:18:26;;;;;;;1.60;1.50;;;25.00;49.50;;;;;;5063738;28;20635;-59
2022/07/26 09:20:51;;;;;;;1.40;1.30;;;25.00;49.40;;;;;;5061767;28;20236;-66
2022/07/26 09:23:18;;;;;;;2.37;1.30;;;25.00;49.50;;;;;;5074527;28;20433;-70
2022/07/26 09:25:44;;;;;;;1.40;1.30;;;25.00;49.40;;;;;;5072621;28;20212;-58
2022/07/26 09:28:30;;;;;;;1.50;1.40;;;25.00;49.50;;;;;;5067220;28;20468;-62
2022/07/26 09:31:00;;;;;;;1.57;1.47;;;25.00;49.40;;;;;;5069310;28;20433;-58
2022/07/26 09:33:42;;;;;;;1.70;1.60;;;25.00;49.50;;;;;;5064189;28;20433;-72
2022/07/26 09:36:08;;;;;;;1.77;1.67;;;25.00;49.50;;;;;;5063386;28;22531;-73
2022/07/26 09:38:49;;;;;;;1.60;1.50;;;25.00;49.50;;;;;;5071005;28;20508;-66
2022/07/26 09:41:26;;;;;;;1.57;1.47;;;25.00;49.50;;;;;;5072608;28;20444;-71
2022/07/26 09:43:53;;;;;;;1.33;1.23;;;25.00;49.60;;;;;;5061900;28;20463;-60
2022/07/26 09:46:19;;;;;;;1.70;1.60;;;25.00;49.60;;;;;;5061498;28;20695;-75
2022/07/26 09:48:45;;;;;;;1.60;1.50;;;25.00;49.50;;;;;;5068895;28;22613;-67
2022/07/26 09:51:11;;;;;;;1.50;1.40;;;25.00;49.50;;;;;;5067642;28;20174;-59
2022/07/26 09:53:46;;;;;;;2.03;1.70;;;25.00;49.50;;;;;;5066898;28;21033;-60
2022/07/26 09:56:14;;;;;;;1.60;1.50;;;24.90;49.40;;;;;;5070763;28;20223;-58
2022/07/26 09:58:40;;;;;;;1.40;1.30;;;25.00;49.50;;;;;;5064493;28;20962;-62
2022/07/26 10:01:07;;;;;;;1.53;1.43;;;25.00;49.50;;;;;;5066074;28;20437;-68
2022/07/26 10:03:34;;;;;;;1.60;1.50;;;25.00;49.60;;;;;;5062344;28;20451;-61
2022/07/26 10:06:01;;;;;;;1.63;1.53;;;25.00;49.50;;;;;;5066270;28;20440;-71
2022/07/26 10:08:27;;;;;;;1.70;1.60;;;25.00;49.50;;;;;;5068427;28;20461;-59
2022/07/26 10:11:08;;;;;;;1.60;1.50;;;25.00;49.50;;;;;;5068408;28;20493;-58
2022/07/26 10:13:34;;;;;;;1.60;1.50;;;25.00;49.50;;;;;;5068526;28;20483;-59
2022/07/26 10:16:00;;;;;;;1.53;1.43;;;25.00;49.60;;;;;;5072487;28;20434;-61
2022/07/26 10:18:35;;;;;;;1.40;1.30;;;25.00;49.60;;;;;;5068067;28;20217;-68
2022/07/26 10:21:17;;;;;;;1.50;1.40;;;25.00;49.60;;;;;;5070086;28;20484;-62
2022/07/26 10:23:45;;;;;;;1.80;1.70;;;25.00;49.60;;;;;;5069815;28;20521;-58
2022/07/26 10:26:32;;;;;;;1.40;1.30;;;25.00;49.60;;;;;;5072350;28;20440;-59
2022/07/26 10:29:16;;;;;;;1.50;1.40;;;25.00;49.60;;;;;;5068954;28;20463;-60
2022/07/26 10:31:44;;;;;;;1.50;1.40;;;25.00;49.60;;;;;;5066858;28;20444;-72
2022/07/26 10:34:10;;;;;;;1.80;1.70;;;25.00;49.60;;;;;;5061713;28;20434;-58
2022/07/26 10:36:38;;;;;;;1.90;1.80;;;25.00;49.60;;;;;;5061847;28;20535;-59
2022/07/26 10:39:22;;;;;;;1.60;1.50;;;25.00;49.60;;;;;;5064136;28;20196;-70
2022/07/26 10:41:58;;;;;;;1.60;1.50;;;25.00;49.60;;;;;;5067965;28;20432;-61
2022/07/26 10:44:27;;;;;;;1.70;1.60;;;25.00;49.60;;;;;;5067714;28;21703;-63
2022/07/26 10:47:08;;;;;;;1.57;1.47;;;25.00;49.60;;;;;;5063711;28;20433;-68
2022/07/26 10:49:44;;;;;;;1.90;1.80;;;25.00;49.60;;;;;;5065361;28;20466;-59
2022/07/26 10:52:17;;;;;;;1.87;1.77;;;25.00;49.60;;;;;;5061082;28;20421;-68
2022/07/26 10:54:59;;;;;;;1.70;1.60;;;25.00;49.60;;;;;;5060633;28;20456;-59
2022/07/26 10:57:28;;;;;;;1.60;1.50;;;24.90;49.60;;;;;;5067041;28;20847;-62
2022/07/26 10:59:56;;;;;;;1.60;1.50;;;25.00;49.60;;;;;;5066426;28;20446;-74
2022/07/26 11:02:27;;;;;;;1.60;1.50;;;25.00;49.60;;;;;;5063984;28;20468;-58
2022/07/26 11:05:12;;;;;;;1.90;1.80;;;25.00;49.60;;;;;;5069996;28;20564;-61
2022/07/26 11:07:48;;;;;;;1.53;1.43;;;25.00;49.50;;;;;;5064175;28;20449;-62
2022/07/26 11:10:14;;;;;;;1.60;1.50;;;25.00;49.60;;;;;;5064602;28;20447;-58
2022/07/26 11:12:40;;;;;;;1.57;1.47;;;25.00;49.60;;;;;;5063004;28;20473;-62
2022/07/26 11:15:17;;;;;;;1.90;1.80;;;25.00;49.60;;;;;;5068762;28;20180;-64
2022/07/26 11:17:43;;;;;;;1.60;1.50;;;25.00;49.60;;;;;;5059796;28;20440;-65
2022/07/26 11:20:09;;;;;;;1.70;1.60;;;25.00;49.60;;;;;;5063843;28;20477;-64
2022/07/26 11:22:35;;;;;;;1.50;1.40;;;25.00;49.50;;;;;;5062611;28;20193;-62
2022/07/26 11:25:02;;;;;;;1.57;1.47;;;25.00;49.60;;;;;;5066066;28;20449;-63
2022/07/26 11:27:29;;;;;;;1.93;1.80;;;25.00;49.60;;;;;;5059863;28;20181;-66
2022/07/26 11:30:01;;;;;;;1.70;1.60;;;25.00;49.50;;;;;;5072356;28;20438;-62
2022/07/26 11:32:27;;;;;;;1.70;1.60;;;25.00;49.60;;;;;;5065362;28;20913;-68
2022/07/26 11:35:04;;;;;;;1.60;1.50;;;25.00;49.60;;;;;;5060224;28;20446;-72
2022/07/26 11:37:29;;;;;;;1.57;1.47;;;25.00;49.50;;;;;;5064932;28;20280;-68
2022/07/26 11:39:55;;;;;;;1.50;1.40;;;25.00;49.60;;;;;;5062536;28;20438;-60
2022/07/26 11:42:21;;;;;;;1.60;1.50;;;25.00;49.60;;;;;;5059113;28;20577;-63
2022/07/26 11:44:49;;;;;;;1.50;1.40;;;25.00;49.60;;;;;;5071977;28;20181;-62
2022/07/26 11:47:18;;;;;;;1.50;1.40;;;25.00;49.60;;;;;;5066123;28;20190;-58
2022/07/26 11:49:45;;;;;;;1.70;1.60;;;25.00;49.60;;;;;;5067028;28;20549;-65
2022/07/26 11:52:11;;;;;;;1.50;1.40;;;25.00;49.50;;;;;;5058041;28;20791;-72
2022/07/26 11:54:51;;;;;;;1.50;1.40;;;24.90;49.50;;;;;;5060149;28;20457;-73
2022/07/26 11:57:18;;;;;;;1.60;1.50;;;25.00;49.60;;;;;;5060419;28;20472;-62
2022/07/26 11:59:47;;;;;;;1.80;1.70;;;25.00;49.60;;;;;;5066231;28;20430;-62
2022/07/26 12:02:13;;;;;;;1.60;1.50;;;25.00;49.60;;;;;;5064300;28;20437;-65
2022/07/26 12:04:41;;;;;;;1.40;1.30;;;25.00;49.60;;;;;;5062890;28;20501;-57
2022/07/26 12:07:12;;;;;;;1.67;1.57;;;24.90;49.60;;;;;;5063313;28;21020;-62
2022/07/26 12:09:42;;;;;;;1.77;1.60;;;25.00;49.60;;;;;;5062455;28;20497;-71
2022/07/26 12:12:17;;;;;;;1.60;1.50;;;25.00;49.60;;;;;;5064461;28;20526;-59
2022/07/26 12:14:58;;;;;;;1.40;1.30;;;25.00;49.60;;;;;;5062415;28;20426;-65
2022/07/26 12:17:24;;;;;;;1.60;1.50;;;25.00;49.60;;;;;;5062021;28;20432;-60
2022/07/26 12:19:49;;;;;;;1.60;1.50;;;25.00;49.60;;;;;;5060520;28;20509;-65
2022/07/26 12:22:17;;;;;;;1.80;1.70;;;25.00;49.60;;;;;;5062620;28;20240;-66
2022/07/26 12:24:57;;;;;;;1.63;1.47;;;25.00;49.70;;;;;;5059680;28;20185;-69
2022/07/26 12:27:29;;;;;;;1.70;1.60;;;25.00;49.60;;;;;;5062502;28;20432;-72
2022/07/26 12:30:14;;;;;;;1.67;1.57;;;25.00;49.60;;;;;;5059732;28;20466;-73
2022/07/26 12:32:42;;;;;;;1.50;1.40;;;25.00;49.60;;;;;;5069706;28;20437;-68
2022/07/26 12:35:15;;;;;;;1.60;1.50;;;24.90;49.60;;;;;;5065125;28;20779;-61
2022/07/26 12:37:44;;;;;;;1.80;1.70;;;25.00;49.70;;;;;;5066145;28;20942;-61
2022/07/26 12:40:11;;;;;;;1.80;1.53;;;25.00;49.70;;;;;;5066834;28;20465;-58
2022/07/26 12:42:40;;;;;;;1.70;1.60;;;25.00;49.70;;;;;;5063371;28;20464;-66
2022/07/26 12:45:08;;;;;;;1.60;1.50;;;25.00;49.70;;;;;;5063462;28;20504;-71
2022/07/26 12:47:36;;;;;;;1.47;1.37;;;25.00;49.70;;;;;;5072591;28;20690;-59
2022/07/26 12:50:03;;;;;;;1.70;1.60;;;25.00;49.70;;;;;;5062506;28;20417;-62
2022/07/26 12:52:29;;;;;;;1.63;1.53;;;25.00;49.70;;;;;;5062343;28;21651;-65